Time;durP1;ratioP1;P1;durP2;ratioP2;P2;SDS_P1;SDS_P2;PMS_P1;PMS_P2;Temp;Humidity;BMP_temperature;BMP_pressure;BME280_temperature;BME280_humidity;BME280_pressure;Samples;Min_cycle;Max_cycle;Signal;HPM_P1;HPM_P2
2022/01/10 00:01:50;;;;;;;59.45;28.73;;;1.60;99.90;;;;;;5046344;28;20036;-60
2022/01/10 00:04:15;;;;;;;55.08;28.15;;;1.60;99.90;;;;;;5030889;28;20477;-60
2022/01/10 00:06:41;;;;;;;54.53;26.23;;;1.50;99.90;;;;;;5046133;28;20176;-60
2022/01/10 00:09:07;;;;;;;58.60;27.27;;;1.50;99.90;;;;;;5030140;28;20100;-60
2022/01/10 00:11:32;;;;;;;50.38;26.02;;;1.60;99.90;;;;;;5046135;28;20025;-60
2022/01/10 00:13:58;;;;;;;50.78;28.00;;;1.60;99.90;;;;;;5030791;28;20025;-60
2022/01/10 00:16:24;;;;;;;58.53;27.05;;;1.70;99.90;;;;;;5030729;28;20032;-60
2022/01/10 00:18:49;;;;;;;62.47;27.17;;;1.80;99.90;;;;;;5030909;28;20085;-60
2022/01/10 00:21:15;;;;;;;58.70;26.25;;;1.80;99.90;;;;;;5030824;28;20018;-60
2022/01/10 00:23:41;;;;;;;62.55;27.23;;;1.80;99.90;;;;;;5031168;28;20081;-60
2022/01/10 00:26:07;;;;;;;57.10;27.63;;;1.70;99.90;;;;;;5030022;28;20133;-60
2022/01/10 00:28:33;;;;;;;62.40;28.90;;;1.70;99.90;;;;;;5030766;28;20026;-60
2022/01/10 00:30:58;;;;;;;50.25;26.92;;;1.80;99.90;;;;;;5030263;28;20022;-60
2022/01/10 00:33:24;;;;;;;54.13;27.00;;;1.80;99.90;;;;;;5030695;28;20022;-60
2022/01/10 00:35:50;;;;;;;48.50;26.15;;;1.90;99.90;;;;;;5046017;28;20394;-60
2022/01/10 00:38:15;;;;;;;50.30;28.10;;;2.00;99.90;;;;;;5045724;28;20652;-67
2022/01/10 00:40:42;;;;;;;53.08;27.98;;;2.00;99.90;;;;;;5030467;28;20061;-60
2022/01/10 00:43:16;;;;;;;58.05;27.23;;;1.90;99.90;;;;;;5030792;28;20101;-60
2022/01/10 00:45:42;;;;;;;58.28;27.77;;;1.90;99.90;;;;;;5030260;28;20036;-60
2022/01/10 00:48:08;;;;;;;57.38;27.48;;;1.90;99.90;;;;;;5030647;28;20112;-60
2022/01/10 00:50:33;;;;;;;51.95;27.30;;;2.00;99.90;;;;;;5030630;28;20152;-60
2022/01/10 00:53:00;;;;;;;52.08;26.88;;;2.00;99.90;;;;;;5030501;28;20084;-60
2022/01/10 00:55:26;;;;;;;61.42;28.48;;;2.10;99.90;;;;;;5029443;28;20029;-60
2022/01/10 00:57:52;;;;;;;59.80;27.98;;;2.10;99.90;;;;;;5030779;28;20029;-60
2022/01/10 01:00:18;;;;;;;52.45;26.05;;;2.20;99.90;;;;;;5029969;28;20021;-60
2022/01/10 01:02:44;;;;;;;55.60;25.90;;;2.20;99.90;;;;;;5030137;28;20390;-60
2022/01/10 01:05:12;;;;;;;50.70;27.08;;;2.10;99.90;;;;;;5030170;28;20474;-60
2022/01/10 01:07:39;;;;;;;52.95;27.27;;;2.10;99.90;;;;;;5030476;28;20021;-60
2022/01/10 01:10:56;;;;;;;53.40;26.80;;;2.10;99.90;;;;;;5030449;28;20506;-60
2022/01/10 01:24:01;;;;;;;45.35;26.25;;;2.10;99.90;;;;;;5033881;28;20109;-60
2022/01/10 01:26:29;;;;;;;55.00;27.23;;;2.10;99.90;;;;;;5033453;28;20081;-61
2022/01/10 01:28:55;;;;;;;45.45;26.00;;;2.20;99.90;;;;;;5033555;28;20053;-61
2022/01/10 01:31:21;;;;;;;56.58;28.52;;;2.10;99.90;;;;;;5033565;28;20104;-60
2022/01/10 01:33:47;;;;;;;49.40;26.48;;;2.10;99.90;;;;;;5033543;28;20025;-60
2022/01/10 01:36:13;;;;;;;54.78;25.90;;;2.20;99.90;;;;;;5033636;28;20083;-60
2022/01/10 01:38:40;;;;;;;41.50;23.15;;;2.20;99.90;;;;;;5031608;28;20021;-60
2022/01/10 01:41:36;;;;;;;47.47;23.58;;;2.20;99.90;;;;;;5033090;28;20025;-61
2022/01/10 01:44:03;;;;;;;39.88;23.85;;;2.20;99.90;;;;;;5033393;28;20068;-60
2022/01/10 01:46:29;;;;;;;57.95;25.63;;;2.00;99.90;;;;;;5033658;28;20525;-60
2022/01/10 01:48:56;;;;;;;57.83;25.60;;;1.90;99.90;;;;;;5048394;28;20021;-60
2022/01/10 01:51:22;;;;;;;46.42;24.15;;;1.90;99.90;;;;;;5033507;28;20018;-61
2022/01/10 01:53:49;;;;;;;44.17;24.40;;;1.80;99.90;;;;;;5033558;28;20022;-62
2022/01/10 01:56:15;;;;;;;50.78;24.45;;;1.90;99.90;;;;;;5033328;28;20029;-61
2022/01/10 01:58:43;;;;;;;56.00;25.95;;;1.90;99.90;;;;;;5033478;28;20033;-61
2022/01/10 02:01:10;;;;;;;53.22;26.85;;;2.00;99.90;;;;;;5032906;28;20052;-61
2022/01/10 02:03:41;;;;;;;48.05;24.52;;;2.00;99.90;;;;;;5032727;28;20018;-61
2022/01/10 02:06:08;;;;;;;50.42;24.63;;;2.00;99.90;;;;;;5032654;28;20025;-61
2022/01/10 02:08:35;;;;;;;47.30;24.70;;;1.90;99.90;;;;;;5047333;28;20418;-61
2022/01/10 02:11:02;;;;;;;49.13;24.85;;;1.80;99.90;;;;;;5032180;28;20094;-61
2022/01/10 02:13:28;;;;;;;42.28;25.45;;;1.60;99.90;;;;;;5032311;28;20029;-61
2022/01/10 02:16:00;;;;;;;44.45;25.40;;;1.60;99.90;;;;;;5047452;28;20040;-61
2022/01/10 02:18:26;;;;;;;43.92;25.27;;;1.50;99.90;;;;;;5032600;28;20017;-61
2022/01/10 02:20:52;;;;;;;54.72;26.58;;;1.50;99.90;;;;;;5033381;28;20040;-61
2022/01/10 02:23:18;;;;;;;56.20;27.40;;;1.40;99.90;;;;;;5047889;28;20036;-62
2022/01/10 02:25:46;;;;;;;47.97;25.50;;;1.40;99.90;;;;;;5032117;28;20104;-61
2022/01/10 02:28:11;;;;;;;50.33;26.35;;;1.40;99.90;;;;;;5031997;28;20034;-61
2022/01/10 02:30:37;;;;;;;48.97;26.73;;;1.40;99.90;;;;;;5032338;28;20239;-61
2022/01/10 02:33:03;;;;;;;50.00;27.67;;;1.30;99.90;;;;;;5046639;28;20350;-61
2022/01/10 02:35:39;;;;;;;56.88;27.40;;;1.30;99.90;;;;;;5047516;28;20064;-61
2022/01/10 02:38:05;;;;;;;58.45;26.42;;;1.30;99.90;;;;;;5047149;28;20105;-61
2022/01/10 02:40:32;;;;;;;56.10;27.33;;;1.20;99.90;;;;;;5032005;28;20437;-61
2022/01/10 02:42:58;;;;;;;49.60;26.90;;;1.10;99.90;;;;;;5031807;28;20072;-61
2022/01/10 02:45:25;;;;;;;53.63;27.20;;;1.10;99.90;;;;;;5032156;28;20029;-61
2022/01/10 02:47:51;;;;;;;53.67;27.23;;;1.10;99.90;;;;;;5031676;28;20375;-61
2022/01/10 02:50:18;;;;;;;57.45;28.15;;;1.00;99.90;;;;;;5031623;28;20022;-61
2022/01/10 02:52:44;;;;;;;56.65;28.38;;;0.90;99.90;;;;;;5031417;28;20245;-61
2022/01/10 02:55:11;;;;;;;56.83;28.33;;;0.80;99.90;;;;;;5031450;28;20025;-61
2022/01/10 02:57:38;;;;;;;49.58;28.20;;;0.80;99.90;;;;;;5032275;28;20017;-61
2022/01/10 03:00:11;;;;;;;59.72;29.38;;;0.90;99.90;;;;;;5046666;28;20486;-61
2022/01/10 03:02:37;;;;;;;60.72;30.48;;;0.90;99.90;;;;;;5047108;28;20370;-61
2022/01/10 03:05:06;;;;;;;67.82;31.55;;;0.90;99.90;;;;;;5031578;28;20028;-61
2022/01/10 03:07:32;;;;;;;57.20;28.50;;;0.90;99.90;;;;;;5029882;28;20037;-61
2022/01/10 03:09:58;;;;;;;52.90;30.10;;;0.80;99.90;;;;;;5031151;28;20021;-61
2022/01/10 03:12:24;;;;;;;65.80;30.63;;;0.80;99.90;;;;;;5046435;28;20024;-60
2022/01/10 03:14:50;;;;;;;54.45;29.48;;;0.90;99.90;;;;;;5031020;28;20063;-60
2022/01/10 03:17:16;;;;;;;54.65;30.05;;;1.00;99.90;;;;;;5030865;28;20107;-60
2022/01/10 03:19:43;;;;;;;56.88;32.45;;;1.10;99.90;;;;;;5031164;28;20114;-60
2022/01/10 03:22:10;;;;;;;57.45;30.52;;;1.20;99.90;;;;;;5030972;28;20026;-60
2022/01/10 03:24:36;;;;;;;61.42;29.00;;;1.30;99.90;;;;;;5031315;28;20025;-60
2022/01/10 03:27:02;;;;;;;58.88;30.52;;;1.20;99.90;;;;;;5030244;28;20153;-60
2022/01/10 03:29:28;;;;;;;54.80;28.25;;;1.30;99.90;;;;;;5030790;28;20430;-60
2022/01/10 03:31:54;;;;;;;50.00;27.40;;;1.40;99.90;;;;;;5031225;28;20022;-60
2022/01/10 03:34:20;;;;;;;65.97;29.83;;;1.40;99.90;;;;;;5030744;28;20033;-60
2022/01/10 03:36:47;;;;;;;46.90;27.08;;;1.30;99.90;;;;;;5045995;28;20215;-60
2022/01/10 03:39:14;;;;;;;55.00;26.55;;;1.30;99.90;;;;;;5030637;28;20573;-60
2022/01/10 03:41:40;;;;;;;44.70;24.70;;;1.20;99.90;;;;;;5030702;28;20072;-61
2022/01/10 03:44:06;;;;;;;49.88;25.88;;;1.20;99.90;;;;;;5031276;28;20077;-61
2022/01/10 03:46:33;;;;;;;49.78;26.35;;;1.10;99.90;;;;;;5047019;28;20569;-61
2022/01/10 03:49:03;;;;;;;54.17;28.50;;;1.10;99.90;;;;;;5031736;28;20026;-61
2022/01/10 03:51:28;;;;;;;48.45;26.48;;;1.20;99.90;;;;;;5030974;28;20049;-61
2022/01/10 03:53:54;;;;;;;52.70;27.48;;;1.30;99.90;;;;;;5045948;28;20025;-60
2022/01/10 03:56:21;;;;;;;56.83;27.75;;;1.40;99.90;;;;;;5029470;28;20026;-61
2022/01/10 03:58:47;;;;;;;46.53;26.63;;;1.40;99.90;;;;;;5030217;28;20028;-60
2022/01/10 04:01:13;;;;;;;50.10;25.95;;;1.40;99.90;;;;;;5046470;28;20026;-61
2022/01/10 04:03:40;;;;;;;45.75;23.60;;;1.40;99.90;;;;;;5030884;28;20422;-61
2022/01/10 04:06:06;;;;;;;47.97;26.08;;;1.20;99.90;;;;;;5030646;28;20027;-60
2022/01/10 04:08:32;;;;;;;42.05;25.98;;;1.00;99.90;;;;;;5030553;28;20025;-60
2022/01/10 04:10:58;;;;;;;55.25;28.05;;;0.90;99.90;;;;;;5045812;28;20029;-60
2022/01/10 04:13:24;;;;;;;56.78;28.75;;;1.10;99.90;;;;;;5030709;28;20033;-60
2022/01/10 04:15:51;;;;;;;54.75;27.70;;;1.00;99.90;;;;;;5030465;28;20103;-60
2022/01/10 04:18:17;;;;;;;48.90;26.15;;;0.90;99.90;;;;;;5030324;28;20168;-60
2022/01/10 04:20:44;;;;;;;48.38;25.55;;;0.80;99.90;;;;;;5030460;28;20029;-60
2022/01/10 04:23:11;;;;;;;47.72;25.73;;;0.60;99.90;;;;;;5030567;28;20030;-60
2022/01/10 04:25:37;;;;;;;56.15;26.60;;;0.50;99.90;;;;;;5030463;28;20030;-60
2022/01/10 04:28:03;;;;;;;54.47;29.80;;;0.40;99.90;;;;;;5030722;28;20040;-62
2022/01/10 04:30:28;;;;;;;54.22;31.83;;;0.40;99.90;;;;;;5030326;28;20025;-61
2022/01/10 04:32:57;;;;;;;62.70;30.17;;;0.40;99.90;;;;;;5030341;28;20568;-62
2022/01/10 04:35:22;;;;;;;59.40;31.58;;;0.60;99.90;;;;;;5030451;28;20036;-62
2022/01/10 04:37:48;;;;;;;58.10;28.45;;;0.70;99.90;;;;;;5030199;28;20026;-61
2022/01/10 04:40:14;;;;;;;52.45;28.52;;;0.70;99.90;;;;;;5045476;28;20026;-61
2022/01/10 04:42:39;;;;;;;53.92;28.20;;;0.60;99.90;;;;;;5030126;28;20022;-60
2022/01/10 04:45:05;;;;;;;51.42;25.92;;;0.50;99.90;;;;;;5045816;28;20435;-61
2022/01/10 04:47:31;;;;;;;46.80;27.60;;;0.50;99.90;;;;;;5030081;28;20478;-61
2022/01/10 04:52:27;;;;;;;59.58;28.75;;;0.50;99.90;;;;;;5030496;28;20029;-61
2022/01/10 04:54:52;;;;;;;50.55;27.02;;;0.50;99.90;;;;;;5030282;28;20083;-61
2022/01/10 04:57:18;;;;;;;61.08;28.92;;;0.30;99.90;;;;;;5034063;28;20017;-61
2022/01/10 04:59:43;;;;;;;59.30;29.35;;;0.30;99.90;;;;;;5033768;28;20025;-61
2022/01/10 05:02:10;;;;;;;52.83;28.63;;;0.30;99.90;;;;;;5034010;28;20029;-61
2022/01/10 05:04:36;;;;;;;66.90;30.48;;;0.40;99.90;;;;;;5049148;28;20022;-61
2022/01/10 05:07:02;;;;;;;57.50;30.20;;;0.40;99.90;;;;;;5048832;28;20076;-61
2022/01/10 05:09:28;;;;;;;61.05;31.58;;;0.30;99.90;;;;;;5033428;28;20473;-61
2022/01/10 05:11:53;;;;;;;71.40;31.23;;;0.30;99.90;;;;;;5033257;28;20033;-61
2022/01/10 05:14:19;;;;;;;60.83;32.25;;;0.30;99.90;;;;;;5033110;28;20387;-61
2022/01/10 05:16:45;;;;;;;72.40;31.27;;;0.30;99.90;;;;;;5033173;28;20024;-61
2022/01/10 05:19:11;;;;;;;69.45;31.75;;;0.30;99.90;;;;;;5032874;28;20127;-61
2022/01/10 05:21:36;;;;;;;59.10;30.83;;;0.30;99.90;;;;;;5032843;28;20478;-61
2022/01/10 05:24:02;;;;;;;199.77;40.30;;;0.30;99.90;;;;;;5048233;28;20033;-61
2022/01/10 05:26:28;;;;;;;95.80;33.53;;;0.30;99.90;;;;;;5047773;28;20117;-61
2022/01/10 05:28:55;;;;;;;157.27;36.92;;;0.40;99.90;;;;;;5032452;28;20504;-61
2022/01/10 05:31:21;;;;;;;89.28;34.20;;;0.50;99.90;;;;;;5032725;28;20021;-61
2022/01/10 05:33:47;;;;;;;66.40;31.90;;;0.50;99.90;;;;;;5032617;28;20022;-61
2022/01/10 05:36:13;;;;;;;97.93;32.08;;;0.60;99.90;;;;;;5048362;28;20021;-61
2022/01/10 05:38:38;;;;;;;99.55;31.30;;;0.50;99.90;;;;;;5032788;28;20360;-61
2022/01/10 05:41:04;;;;;;;92.63;27.92;;;0.50;99.90;;;;;;5048301;28;20050;-61
2022/01/10 05:43:30;;;;;;;104.20;29.73;;;0.50;99.90;;;;;;5033076;28;20021;-61
2022/01/10 05:45:55;;;;;;;160.90;29.77;;;0.40;99.90;;;;;;5032687;28;20057;-61
2022/01/10 05:48:25;;;;;;;172.95;29.25;;;0.40;99.90;;;;;;5048047;28;20021;-61
2022/01/10 05:50:52;;;;;;;49.92;21.80;;;0.20;99.90;;;;;;5033149;28;20041;-61
2022/01/10 05:53:19;;;;;;;183.25;30.88;;;0.20;99.90;;;;;;5033696;28;20021;-61
2022/01/10 05:55:45;;;;;;;192.23;30.13;;;0.20;99.90;;;;;;5033451;28;20510;-61
2022/01/10 05:58:11;;;;;;;154.77;29.15;;;0.20;99.90;;;;;;5032939;28;20029;-61
2022/01/10 06:00:37;;;;;;;89.47;26.58;;;0.20;99.90;;;;;;5033073;28;20021;-61
2022/01/10 06:03:03;;;;;;;170.98;29.73;;;0.20;99.90;;;;;;5048031;28;20503;-61
2022/01/10 06:05:33;;;;;;;92.50;27.85;;;0.10;99.90;;;;;;5032750;28;20052;-61
2022/01/10 06:07:59;;;;;;;168.05;28.05;;;0.10;99.90;;;;;;5031407;28;20018;-61
2022/01/10 06:10:26;;;;;;;187.02;29.45;;;0.10;99.90;;;;;;5047764;28;20018;-61
2022/01/10 06:12:52;;;;;;;156.73;25.90;;;0.10;99.90;;;;;;5032538;28;20320;-61
2022/01/10 06:15:18;;;;;;;177.15;25.95;;;0.10;99.90;;;;;;5032520;28;20036;-61
2022/01/10 06:17:44;;;;;;;176.25;27.73;;;0.00;99.90;;;;;;5032666;28;20092;-61
2022/01/10 06:20:10;;;;;;;152.90;25.60;;;0.00;99.90;;;;;;5032169;28;20113;-61
2022/01/10 06:22:36;;;;;;;131.88;25.45;;;0.00;99.90;;;;;;5031893;28;20039;-61
2022/01/10 06:25:03;;;;;;;182.73;26.40;;;-0.10;99.90;;;;;;5047222;28;20029;-61
2022/01/10 06:27:29;;;;;;;185.52;23.23;;;-0.20;99.90;;;;;;5032138;28;20061;-61
2022/01/10 06:29:55;;;;;;;62.47;20.85;;;-0.30;99.90;;;;;;5032023;28;20482;-61
2022/01/10 06:32:20;;;;;;;121.63;22.75;;;-0.40;99.90;;;;;;5032082;28;20059;-61
2022/01/10 06:34:46;;;;;;;122.43;21.35;;;-0.40;99.90;;;;;;5046825;28;20566;-61
2022/01/10 06:37:12;;;;;;;85.22;20.35;;;-0.40;99.90;;;;;;5031176;28;20049;-61
2022/01/10 06:39:38;;;;;;;113.10;21.77;;;-0.40;99.90;;;;;;5012463;28;20037;-61
2022/01/10 06:42:04;;;;;;;77.05;21.15;;;-0.30;99.90;;;;;;5012208;28;20034;-61
2022/01/10 06:44:30;;;;;;;167.13;22.58;;;-0.40;99.90;;;;;;5012568;28;20494;-61
2022/01/10 06:46:57;;;;;;;108.10;20.88;;;-0.40;99.90;;;;;;5012025;28;20064;-62
2022/01/10 06:49:22;;;;;;;58.17;18.05;;;-0.50;99.90;;;;;;5012561;28;20032;-61
2022/01/10 06:51:48;;;;;;;120.90;19.65;;;-0.50;99.90;;;;;;5026925;28;20490;-61
2022/01/10 06:54:14;;;;;;;177.43;23.15;;;-0.50;99.90;;;;;;5027085;28;20092;-61
2022/01/10 06:56:40;;;;;;;54.65;19.60;;;-0.50;99.90;;;;;;5012163;28;20112;-61
2022/01/10 06:59:05;;;;;;;134.23;19.42;;;-0.40;99.90;;;;;;5031741;28;20478;-61
2022/01/10 07:01:31;;;;;;;134.68;22.10;;;-0.40;99.90;;;;;;5016738;28;20037;-61
2022/01/10 07:03:57;;;;;;;66.10;14.85;;;-0.30;99.90;;;;;;5020134;28;20024;-60
2022/01/10 07:06:23;;;;;;;141.85;19.65;;;-0.40;99.90;;;;;;5013746;28;20304;-61
2022/01/10 07:08:49;;;;;;;140.07;19.88;;;-0.40;99.90;;;;;;5018693;28;20092;-61
2022/01/10 07:11:15;;;;;;;55.75;15.02;;;-0.40;99.90;;;;;;5022604;28;20399;-61
2022/01/10 07:13:40;;;;;;;60.38;15.30;;;-0.40;99.90;;;;;;5019634;28;20124;-61
2022/01/10 07:16:06;;;;;;;71.10;15.60;;;-0.40;99.90;;;;;;5016148;28;20309;-61
2022/01/10 07:18:32;;;;;;;154.63;20.25;;;-0.50;99.90;;;;;;5017591;28;20060;-60
2022/01/10 07:20:58;;;;;;;110.93;22.42;;;-0.50;99.90;;;;;;5019813;28;20052;-61
2022/01/10 07:23:23;;;;;;;57.83;18.50;;;-0.40;99.90;;;;;;5018472;28;20314;-61
2022/01/10 07:25:50;;;;;;;46.38;17.63;;;-0.30;99.90;;;;;;5017801;28;20114;-60
2022/01/10 07:28:16;;;;;;;49.05;18.17;;;-0.30;99.90;;;;;;5037379;28;20037;-61
2022/01/10 07:30:42;;;;;;;96.10;19.83;;;-0.20;99.90;;;;;;5018158;28;20040;-61
2022/01/10 07:33:07;;;;;;;56.75;15.95;;;-0.20;99.90;;;;;;5024162;28;20048;-61
2022/01/10 07:35:33;;;;;;;49.35;14.25;;;-0.20;99.90;;;;;;5014959;28;20052;-61
2022/01/10 07:37:59;;;;;;;138.05;19.70;;;-0.30;99.90;;;;;;5017926;28;20537;-61
2022/01/10 07:40:25;;;;;;;62.60;15.55;;;-0.20;99.90;;;;;;5021862;28;20118;-61
2022/01/10 07:42:51;;;;;;;123.70;20.05;;;-0.30;99.90;;;;;;5024653;28;20040;-61
2022/01/10 07:45:17;;;;;;;136.18;22.15;;;-0.30;99.90;;;;;;5034847;28;20395;-61
2022/01/10 07:47:43;;;;;;;89.93;19.20;;;-0.30;99.90;;;;;;5035124;28;20034;-61
2022/01/10 07:50:10;;;;;;;71.25;16.60;;;-0.30;99.90;;;;;;5017677;28;20044;-61
2022/01/10 07:52:35;;;;;;;71.03;19.35;;;-0.40;99.90;;;;;;5018599;28;20153;-62
2022/01/10 07:55:02;;;;;;;163.25;20.90;;;-0.30;99.90;;;;;;5019582;28;20518;-61
2022/01/10 07:57:28;;;;;;;72.63;16.38;;;-0.20;99.90;;;;;;5034476;28;20132;-61
2022/01/10 07:59:54;;;;;;;180.25;21.13;;;-0.20;99.90;;;;;;5023700;28;20061;-61
2022/01/10 08:02:21;;;;;;;132.43;15.55;;;-0.30;99.90;;;;;;5036175;28;20026;-61
2022/01/10 08:04:50;;;;;;;169.02;19.40;;;-0.30;99.90;;;;;;5035902;28;20030;-61
2022/01/10 08:07:15;;;;;;;254.65;22.52;;;-0.50;99.90;;;;;;5018379;28;20538;-61
2022/01/10 08:09:41;;;;;;;132.32;20.92;;;-0.40;99.90;;;;;;5020072;28;20041;-61
2022/01/10 08:12:07;;;;;;;191.75;21.25;;;-0.40;99.90;;;;;;5018541;28;20032;-61
2022/01/10 08:14:33;;;;;;;86.47;16.85;;;-0.40;99.90;;;;;;5021797;28;20030;-61
2022/01/10 08:17:00;;;;;;;163.52;21.27;;;-0.30;99.90;;;;;;5020526;28;20042;-61
2022/01/10 08:19:27;;;;;;;183.85;19.67;;;-0.20;99.90;;;;;;5020726;28;20018;-61
2022/01/10 08:21:55;;;;;;;48.67;15.20;;;-0.30;99.90;;;;;;5019471;28;20021;-61
2022/01/10 08:24:22;;;;;;;160.57;20.77;;;-0.20;99.90;;;;;;5017240;28;20032;-61
2022/01/10 08:26:48;;;;;;;177.90;17.73;;;-0.20;99.90;;;;;;5023192;28;20037;-60
2022/01/10 08:29:14;;;;;;;359.80;24.98;;;-0.20;99.90;;;;;;5035919;28;20026;-60
2022/01/10 08:31:40;;;;;;;242.10;24.25;;;-0.20;99.90;;;;;;5017261;28;20052;-61
2022/01/10 08:34:06;;;;;;;65.47;15.30;;;-0.30;99.90;;;;;;5026359;28;21033;-61
2022/01/10 08:36:32;;;;;;;213.05;20.40;;;-0.30;99.90;;;;;;5024296;28;20017;-60
2022/01/10 08:38:58;;;;;;;195.20;20.30;;;-0.20;99.90;;;;;;5039382;28;20112;-61
2022/01/10 08:41:24;;;;;;;58.15;13.25;;;-0.20;99.90;;;;;;5017845;28;20194;-61
2022/01/10 08:43:50;;;;;;;115.78;16.73;;;-0.20;99.90;;;;;;5023341;28;20509;-62
2022/01/10 08:46:16;;;;;;;78.70;15.55;;;-0.20;99.90;;;;;;5024492;28;20146;-61
2022/01/10 08:48:41;;;;;;;191.13;21.98;;;-0.30;99.90;;;;;;5030397;28;20058;-61
2022/01/10 08:51:08;;;;;;;47.05;13.60;;;-0.20;99.90;;;;;;5021065;28;20030;-61
2022/01/10 08:53:33;;;;;;;88.63;15.55;;;-0.20;99.90;;;;;;5021166;28;20112;-60
2022/01/10 08:56:00;;;;;;;226.63;19.70;;;-0.10;99.90;;;;;;5041137;28;20108;-61
2022/01/10 08:58:32;;;;;;;53.08;13.68;;;-0.10;99.90;;;;;;5027249;28;20035;-60
2022/01/10 09:01:01;;;;;;;73.63;12.80;;;0.00;99.90;;;;;;5019597;28;20025;-63
2022/01/10 09:03:27;;;;;;;110.10;15.45;;;0.00;99.90;;;;;;5020086;28;20038;-61
2022/01/10 09:05:55;;;;;;;189.93;20.02;;;-0.10;99.90;;;;;;5024980;28;20044;-61
2022/01/10 09:08:22;;;;;;;97.13;13.65;;;-0.10;99.90;;;;;;5022991;28;20068;-61
2022/01/10 09:10:48;;;;;;;79.50;13.60;;;0.00;99.90;;;;;;5012585;28;20053;-61
2022/01/10 09:13:14;;;;;;;106.88;15.48;;;-0.10;99.90;;;;;;5017458;28;20080;-60
2022/01/10 09:15:39;;;;;;;129.63;15.38;;;0.10;99.90;;;;;;5012214;28;20033;-61
2022/01/10 09:18:05;;;;;;;113.65;15.32;;;0.00;99.90;;;;;;5034870;28;20022;-60
2022/01/10 09:20:31;;;;;;;72.45;15.00;;;0.10;99.90;;;;;;5016052;28;20061;-60
2022/01/10 09:22:57;;;;;;;222.88;15.85;;;0.10;99.90;;;;;;5023497;28;20051;-61
2022/01/10 09:25:22;;;;;;;32.42;9.80;;;0.20;99.90;;;;;;5019026;28;20038;-61
2022/01/10 09:27:49;;;;;;;139.45;15.13;;;0.20;99.90;;;;;;5023232;28;20542;-61
2022/01/10 09:30:14;;;;;;;203.82;16.05;;;0.10;99.90;;;;;;5021447;28;20060;-61
2022/01/10 09:32:41;;;;;;;261.23;17.65;;;0.00;99.90;;;;;;5026464;28;20056;-61
2022/01/10 09:35:07;;;;;;;60.20;9.85;;;0.00;99.90;;;;;;5017727;28;20025;-61
2022/01/10 09:37:33;;;;;;;105.55;12.82;;;0.00;99.90;;;;;;5017111;28;20041;-61
2022/01/10 09:39:59;;;;;;;113.88;12.15;;;0.00;99.90;;;;;;5014824;28;20072;-60
2022/01/10 09:42:25;;;;;;;61.70;11.35;;;0.00;99.90;;;;;;5016222;28;20017;-60
2022/01/10 09:44:52;;;;;;;40.83;8.65;;;0.00;99.90;;;;;;5015587;28;20041;-61
2022/01/10 09:47:17;;;;;;;46.45;9.13;;;0.00;99.90;;;;;;5016038;28;20079;-60
2022/01/10 09:49:43;;;;;;;28.63;9.23;;;0.10;99.90;;;;;;5017122;28;20049;-61
2022/01/10 09:52:10;;;;;;;208.45;21.52;;;0.00;99.90;;;;;;5032572;28;20371;-61
2022/01/10 09:54:36;;;;;;;193.40;16.75;;;0.00;99.90;;;;;;5019127;28;20809;-61
2022/01/10 09:57:02;;;;;;;143.30;14.82;;;0.00;99.90;;;;;;5018218;28;20038;-61
2022/01/10 09:59:29;;;;;;;217.43;18.98;;;0.00;99.90;;;;;;5022324;28;20612;-60
2022/01/10 10:01:55;;;;;;;38.30;12.80;;;0.10;99.90;;;;;;5014307;28;20025;-61
2022/01/10 10:04:20;;;;;;;60.53;13.48;;;0.30;99.90;;;;;;5019690;28;20128;-61
2022/01/10 10:06:47;;;;;;;120.57;17.38;;;0.30;99.90;;;;;;5017189;28;20072;-61
2022/01/10 10:09:13;;;;;;;257.00;20.13;;;0.30;99.90;;;;;;5016103;28;20036;-61
2022/01/10 10:11:43;;;;;;;205.57;23.17;;;0.40;99.90;;;;;;5024934;28;20033;-61
2022/01/10 10:14:11;;;;;;;183.20;21.50;;;0.30;99.90;;;;;;5016838;28;20032;-61
2022/01/10 10:16:39;;;;;;;209.35;21.55;;;0.30;99.90;;;;;;5033377;28;20478;-61
2022/01/10 10:19:05;;;;;;;85.03;15.90;;;0.40;99.90;;;;;;5021163;28;20021;-61
2022/01/10 10:21:33;;;;;;;127.20;15.70;;;0.50;99.90;;;;;;5020268;28;20069;-61
2022/01/10 10:24:00;;;;;;;180.13;19.02;;;0.50;99.90;;;;;;5017581;28;20784;-61
2022/01/10 10:26:26;;;;;;;94.88;16.63;;;0.40;99.90;;;;;;5021586;28;20127;-61
2022/01/10 10:28:55;;;;;;;61.95;16.77;;;0.40;99.90;;;;;;5021834;28;20033;-60
2022/01/10 10:31:30;;;;;;;59.42;17.10;;;0.50;99.90;;;;;;5025914;28;20030;-61
2022/01/10 10:33:57;;;;;;;54.60;15.68;;;0.50;99.90;;;;;;5012785;28;20076;-60
2022/01/10 10:36:25;;;;;;;51.40;14.95;;;0.70;99.90;;;;;;5018922;28;20074;-61
2022/01/10 10:38:52;;;;;;;161.15;15.98;;;0.70;99.90;;;;;;5018033;28;20751;-60
2022/01/10 10:41:18;;;;;;;85.30;15.60;;;0.60;99.90;;;;;;5015627;28;20029;-61
2022/01/10 10:43:44;;;;;;;36.38;13.50;;;0.60;99.90;;;;;;5014958;28;20106;-61
2022/01/10 10:46:15;;;;;;;44.55;13.23;;;0.80;99.90;;;;;;5020894;28;20033;-61
2022/01/10 10:48:43;;;;;;;34.57;13.10;;;0.90;99.90;;;;;;5022122;28;20398;-60
2022/01/10 10:51:09;;;;;;;39.58;14.20;;;1.00;99.90;;;;;;5020535;28;20546;-60
2022/01/10 10:53:35;;;;;;;117.00;16.52;;;1.00;99.90;;;;;;5021264;28;20095;-60
2022/01/10 10:56:04;;;;;;;42.72;12.52;;;1.00;99.90;;;;;;5019303;28;20124;-60
2022/01/10 10:58:31;;;;;;;71.03;15.82;;;1.00;99.90;;;;;;5019751;28;20030;-60
2022/01/10 11:00:58;;;;;;;64.85;14.95;;;1.10;99.90;;;;;;5014618;28;20022;-60
2022/01/10 11:03:24;;;;;;;38.03;12.65;;;1.30;99.90;;;;;;5028667;28;20616;-60
2022/01/10 11:05:54;;;;;;;25.17;10.98;;;1.30;99.90;;;;;;5018370;28;20548;-60
2022/01/10 11:08:21;;;;;;;93.20;15.30;;;1.40;99.90;;;;;;5019648;28;20165;-60
2022/01/10 11:10:47;;;;;;;62.63;15.18;;;1.40;99.90;;;;;;5019256;28;20029;-59
2022/01/10 11:13:13;;;;;;;36.58;13.57;;;1.30;99.90;;;;;;5023120;28;20025;-59
2022/01/10 11:15:39;;;;;;;55.38;15.32;;;1.40;99.90;;;;;;5020406;28;20573;-59
2022/01/10 11:18:07;;;;;;;55.72;14.52;;;1.40;99.90;;;;;;5022951;28;20025;-59
2022/01/10 11:20:44;;;;;;;33.95;10.70;;;1.50;99.90;;;;;;5016224;28;20558;-59
2022/01/10 11:23:10;;;;;;;34.08;11.38;;;1.40;99.90;;;;;;5023538;28;20025;-59
2022/01/10 11:25:40;;;;;;;22.70;9.80;;;1.50;99.90;;;;;;5021660;28;20132;-59
2022/01/10 11:28:26;;;;;;;29.95;11.90;;;1.50;99.90;;;;;;5018992;28;20068;-59
2022/01/10 11:31:04;;;;;;;25.60;11.02;;;1.50;99.90;;;;;;5014499;28;20044;-59
2022/01/10 11:33:36;;;;;;;41.45;13.02;;;1.60;99.90;;;;;;5016364;28;20350;-59
2022/01/10 11:36:10;;;;;;;29.55;11.85;;;1.70;99.90;;;;;;5020851;28;20040;-59
2022/01/10 11:38:36;;;;;;;90.07;13.25;;;1.60;99.90;;;;;;5015582;28;20029;-58
2022/01/10 11:41:04;;;;;;;117.68;11.30;;;1.50;99.90;;;;;;5015804;28;20087;-59
2022/01/10 11:44:09;;;;;;;35.50;8.77;;;1.40;99.90;;;;;;5019156;28;20052;-59
2022/01/10 11:46:37;;;;;;;100.63;11.40;;;1.30;99.90;;;;;;5018205;28;20116;-60
2022/01/10 11:49:13;;;;;;;69.13;11.65;;;1.40;99.90;;;;;;5023544;28;20430;-59
2022/01/10 11:51:43;;;;;;;54.95;10.02;;;1.50;99.90;;;;;;5017707;28;20032;-59
2022/01/10 11:54:11;;;;;;;89.18;12.68;;;1.40;99.90;;;;;;5017784;28;20049;-59
2022/01/10 11:56:43;;;;;;;45.47;10.45;;;1.40;99.90;;;;;;5014338;28;20544;-59
2022/01/10 11:59:26;;;;;;;24.10;9.80;;;1.30;99.90;;;;;;5015264;28;20017;-59
2022/01/10 12:02:04;;;;;;;45.25;12.18;;;1.40;99.90;;;;;;5037568;28;20116;-59
2022/01/10 12:04:32;;;;;;;35.78;11.70;;;1.40;99.90;;;;;;5019782;28;20482;-59
2022/01/10 12:06:59;;;;;;;57.13;9.95;;;1.60;99.90;;;;;;5018526;28;20018;-59
2022/01/10 12:09:25;;;;;;;47.40;10.88;;;1.60;99.90;;;;;;5018825;28;21773;-58
2022/01/10 12:11:52;;;;;;;26.52;8.05;;;1.60;99.90;;;;;;5019385;28;20247;-58
2022/01/10 12:14:20;;;;;;;67.20;12.02;;;1.70;99.90;;;;;;5012488;28;20380;-58
2022/01/10 12:16:47;;;;;;;59.53;10.13;;;1.60;99.90;;;;;;5025725;28;20041;-58
2022/01/10 12:19:13;;;;;;;119.40;13.57;;;1.70;99.90;;;;;;5015029;28;20375;-58
2022/01/10 12:21:39;;;;;;;94.95;11.88;;;1.60;99.90;;;;;;5017039;28;20040;-58
2022/01/10 12:24:07;;;;;;;44.83;11.13;;;1.70;99.90;;;;;;5022002;28;20022;-59
2022/01/10 12:26:34;;;;;;;92.95;12.68;;;1.70;99.90;;;;;;5037927;28;20073;-59
2022/01/10 12:29:01;;;;;;;67.43;12.20;;;1.70;99.90;;;;;;5021141;28;20238;-59
2022/01/10 12:31:29;;;;;;;66.55;12.45;;;1.80;99.90;;;;;;5024398;28;20025;-59
2022/01/10 12:33:57;;;;;;;111.47;13.60;;;1.80;99.90;;;;;;5026463;28;20075;-59
2022/01/10 12:36:24;;;;;;;45.15;10.55;;;1.70;99.90;;;;;;5018342;28;20048;-59
2022/01/10 12:38:52;;;;;;;28.77;10.75;;;1.80;99.90;;;;;;5017918;28;20022;-59
2022/01/10 12:41:20;;;;;;;50.60;14.23;;;1.90;99.90;;;;;;5024177;28;20033;-59
2022/01/10 12:43:48;;;;;;;104.07;14.77;;;1.90;99.90;;;;;;5021050;28;20069;-59
2022/01/10 12:46:14;;;;;;;75.60;14.68;;;1.90;99.90;;;;;;5024355;28;20021;-59